Time;durP1;ratioP1;P1;durP2;ratioP2;P2;SDS_P1;SDS_P2;PMS_P1;PMS_P2;Temp;Humidity;BMP_temperature;BMP_pressure;BME280_temperature;BME280_humidity;BME280_pressure;Samples;Min_cycle;Max_cycle;Signal;HPM_P1;HPM_P2
2022/09/12 00:01:19;;;;;;;12.95;8.57;;;;;;;16.04;68.92;101447.81;4922345;28;120529;-79
2022/09/12 00:03:46;;;;;;;10.85;8.55;;;;;;;16.01;68.85;101439.69;4922650;28;122103;-80
2022/09/12 00:06:18;;;;;;;11.27;8.63;;;;;;;15.99;68.80;101451.22;4938737;28;120100;-80
2022/09/12 00:08:44;;;;;;;10.45;8.90;;;;;;;15.98;68.71;101441.41;4922602;28;120451;-80
2022/09/12 00:11:11;;;;;;;9.50;8.50;;;;;;;15.98;69.07;101451.69;4926607;28;120563;-80
2022/09/12 00:13:39;;;;;;;11.00;9.00;;;;;;;15.90;68.94;101440.97;4921853;28;120171;-80
2022/09/12 00:16:05;;;;;;;9.18;7.60;;;;;;;15.90;69.08;101438.22;4934112;28;119870;-80
2022/09/12 00:18:31;;;;;;;10.15;8.10;;;;;;;15.93;68.89;101442.81;4918329;28;120563;-81
2022/09/12 00:21:01;;;;;;;10.23;8.15;;;;;;;15.91;68.37;101445.28;4909606;28;119989;-81
2022/09/12 00:23:27;;;;;;;11.10;8.50;;;;;;;15.78;68.42;101430.88;4926824;28;119695;-80
2022/09/12 00:25:52;;;;;;;9.85;8.40;;;;;;;15.78;68.21;101430.88;4902388;28;122816;-79
2022/09/12 00:28:18;;;;;;;9.50;8.50;;;;;;;15.75;68.38;101437.34;4907960;28;120288;-80
2022/09/12 00:30:48;;;;;;;8.32;7.53;;;;;;;15.79;68.69;101445.47;4924882;28;121835;-80
2022/09/12 00:33:16;;;;;;;10.30;7.68;;;;;;;15.76;68.95;101440.88;4907088;28;123500;-80
2022/09/12 00:35:48;;;;;;;8.77;7.82;;;;;;;15.73;68.10;101445.34;4924904;28;121002;-80
2022/09/12 00:38:15;;;;;;;8.05;7.25;;;;;;;15.72;68.68;101437.53;4936761;28;123316;-80
2022/09/12 00:40:41;;;;;;;8.23;7.43;;;;;;;15.72;68.89;101437.53;4921093;28;119853;-80
2022/09/12 00:43:33;;;;;;;8.77;7.97;;;;;;;15.62;68.56;101426.50;4918208;28;119985;-80
2022/09/12 00:46:03;;;;;;;8.85;7.88;;;;;;;15.67;68.54;101435.41;4921288;28;122998;-80
2022/09/12 00:48:38;;;;;;;8.82;7.93;;;;;;;15.64;69.17;101426.03;4922690;28;119908;-80
2022/09/12 00:51:04;;;;;;;8.68;7.75;;;;;;;15.57;68.83;101418.03;4942648;28;119883;-80
2022/09/12 00:53:30;;;;;;;9.25;8.38;;;;;;;15.60;68.57;101419.88;4921756;28;122819;-80
2022/09/12 00:55:59;;;;;;;9.65;8.65;;;;;;;15.51;68.50;101417.16;4946668;28;120163;-80
2022/09/12 00:58:29;;;;;;;10.05;8.98;;;;;;;15.54;69.10;101418.97;4922920;28;122080;-79
2022/09/12 01:00:57;;;;;;;9.35;8.32;;;;;;;15.52;68.91;101418.66;4924706;28;120345;-79
2022/09/12 01:03:24;;;;;;;9.32;7.78;;;;;;;15.49;68.66;101416.84;4923201;28;120331;-80
2022/09/12 01:06:02;;;;;;;8.63;7.75;;;;;;;15.48;68.71;101415.31;4911696;28;123101;-80
2022/09/12 01:08:27;;;;;;;8.73;7.82;;;;;;;15.45;68.51;101405.97;4926011;28;120393;-80
2022/09/12 01:10:55;;;;;;;8.90;8.00;;;;;;;15.43;68.80;101418.72;4926413;28;119780;-80
2022/09/12 01:13:36;;;;;;;11.38;10.27;;;;;;;15.41;68.77;101416.41;4922343;28;122277;-79
2022/09/12 01:16:04;;;;;;;13.73;12.23;;;;;;;15.36;68.88;101403.22;4944687;28;119965;-80
2022/09/12 01:18:52;;;;;;;14.35;12.20;;;;;;;15.43;69.69;101405.66;4924868;28;120486;-80
2022/09/12 01:21:48;;;;;;;14.68;13.18;;;;;;;15.43;69.27;101402.91;4919657;28;119593;-80
2022/09/12 01:24:23;;;;;;;12.15;10.75;;;;;;;15.40;69.20;101406.59;4923837;28;123316;-80
2022/09/12 01:27:05;;;;;;;11.95;10.70;;;;;;;15.30;68.69;101392.03;4929242;28;120731;-80
2022/09/12 01:30:08;;;;;;;12.52;11.18;;;;;;;15.36;69.20;101401.22;4940166;28;120521;-80
2022/09/12 01:33:10;;;;;;;18.05;14.60;;;;;;;15.35;69.05;101398.91;4912597;28;120725;-80
2022/09/12 01:35:47;;;;;;;21.58;16.27;;;;;;;15.33;68.91;101393.84;4927782;28;124275;-80
2022/09/12 01:38:41;;;;;;;20.88;17.10;;;;;;;15.34;69.40;101392.63;4935572;28;120320;-81
2022/09/12 01:41:11;;;;;;;31.63;17.73;;;;;;;15.32;69.33;101392.31;4941262;28;122376;-80
2022/09/12 01:43:51;;;;;;;24.42;17.17;;;;;;;15.32;69.48;101386.78;4944523;28;119936;-80
2022/09/12 01:46:41;;;;;;;19.45;16.92;;;;;;;15.32;69.81;101389.56;4929263;28;119777;-81
2022/09/12 01:49:22;;;;;;;20.50;17.40;;;;;;;15.32;69.44;101378.50;4927604;28;123920;-80
2022/09/12 01:52:01;;;;;;;19.85;16.95;;;;;;;15.30;69.61;101380.19;4941289;28;120099;-80
2022/09/12 01:54:44;;;;;;;19.33;16.42;;;;;;;15.31;70.10;101381.72;4932867;28;120424;-80
2022/09/12 01:57:16;;;;;;;18.58;16.58;;;;;;;15.29;69.72;101378.66;4911979;28;124393;-80
2022/09/12 01:59:49;;;;;;;17.75;14.50;;;;;;;15.28;69.62;101375.13;4922349;28;120222;-79
2022/09/12 02:02:32;;;;;;;15.98;14.27;;;;;;;15.27;69.17;101376.38;4926995;28;122676;-79
2022/09/12 02:05:06;;;;;;;16.20;13.43;;;;;;;15.23;69.15;101363.97;4931823;28;122894;-79
2022/09/12 02:07:44;;;;;;;16.35;13.23;;;;;;;15.21;69.50;101366.41;4928091;28;122294;-79
2022/09/12 02:10:15;;;;;;;14.50;12.98;;;;;;;15.23;68.94;101370.25;4927319;28;123519;-79
2022/09/12 02:12:51;;;;;;;15.40;13.27;;;;;;;15.17;69.29;101360.31;4896377;28;119974;-79
2022/09/12 02:15:22;;;;;;;16.02;12.93;;;;;;;15.20;68.85;101378.72;4927418;28;122334;-79
2022/09/12 02:17:50;;;;;;;14.45;12.30;;;;;;;15.15;69.03;101371.81;4927695;28;121516;-79
2022/09/12 02:20:32;;;;;;;16.83;14.13;;;;;;;15.13;68.96;101374.25;4935238;28;119811;-79
2022/09/12 02:22:59;;;;;;;18.70;15.55;;;;;;;15.11;69.20;101373.19;4901503;28;123020;-79
2022/09/12 02:25:28;;;;;;;17.25;14.80;;;;;;;15.08;69.53;101371.34;4924513;28;123006;-80
2022/09/12 02:28:09;;;;;;;18.20;15.18;;;;;;;15.12;69.50;101366.44;4947522;28;120050;-79
2022/09/12 02:31:15;;;;;;;14.40;13.00;;;;;;;15.10;69.20;101366.13;4923429;28;121187;-79
2022/09/12 02:33:53;;;;;;;15.93;13.68;;;;;;;15.08;69.15;101363.84;4927169;28;119987;-79
2022/09/12 02:36:28;;;;;;;16.58;13.68;;;;;;;15.06;69.24;101369.06;4928812;28;119979;-78
2022/09/12 02:38:54;;;;;;;14.30;12.80;;;;;;;15.02;69.29;101366.47;4927350;28;123635;-79
2022/09/12 02:41:20;;;;;;;16.77;14.30;;;;;;;14.99;69.44;101366.63;4927753;28;120832;-80
2022/09/12 02:43:48;;;;;;;14.82;13.32;;;;;;;15.01;69.50;101369.69;4909686;28;122576;-79
2022/09/12 02:46:35;;;;;;;17.42;13.40;;;;;;;15.01;69.14;101366.94;4941537;28;119965;-79
2022/09/12 02:49:01;;;;;;;15.10;13.30;;;;;;;14.99;69.31;101369.41;4906611;28;120020;-79
2022/09/12 02:51:26;;;;;;;15.73;12.98;;;;;;;14.89;69.32;101357.59;4944476;28;121823;-79
2022/09/12 02:53:52;;;;;;;13.73;12.30;;;;;;;14.96;69.28;101368.34;4926993;28;120227;-79
2022/09/12 02:56:24;;;;;;;14.63;12.82;;;;;;;14.92;69.14;101358.69;4925058;28;120790;-79
2022/09/12 02:58:51;;;;;;;17.00;13.02;;;;;;;14.92;69.53;101355.91;4888074;28;124185;-80
2022/09/12 03:01:26;;;;;;;17.33;14.38;;;;;;;14.94;68.99;101358.97;4943140;28;119872;-80
2022/09/12 03:04:23;;;;;;;19.38;17.33;;;;;;;14.93;69.37;101363.75;4925428;28;120303;-80
2022/09/12 03:07:26;;;;;;;18.73;16.83;;;;;;;14.92;69.65;101364.19;4926014;28;120550;-80
2022/09/12 03:09:58;;;;;;;15.07;13.48;;;;;;;14.94;69.67;101365.28;4929136;28;119495;-81
2022/09/12 03:12:48;;;;;;;15.98;12.85;;;;;;;14.92;69.48;101359.44;4918236;28;121832;-81
2022/09/12 03:15:41;;;;;;;14.73;12.85;;;;;;;14.87;69.04;101351.00;4924030;28;123790;-80
2022/09/12 03:18:22;;;;;;;13.88;12.43;;;;;;;14.83;68.72;101344.88;4919288;28;122507;-79
2022/09/12 03:21:00;;;;;;;15.75;13.07;;;;;;;14.89;69.15;101356.81;4908783;28;122734;-79
2022/09/12 03:23:36;;;;;;;15.70;14.10;;;;;;;14.97;69.47;101341.47;4923960;28;120235;-82
2022/09/12 03:26:08;;;;;;;12.55;11.32;;;;;;;14.92;69.25;101351.16;4915769;28;122186;-82
2022/09/12 03:28:36;;;;;;;13.00;11.68;;;;;;;14.91;68.99;101346.88;4914169;28;123286;-80
2022/09/12 03:31:16;;;;;;;14.52;13.15;;;;;;;15.01;69.47;101353.88;4920656;28;120251;-79
2022/09/12 03:33:43;;;;;;;13.48;12.07;;;;;;;14.94;68.95;101345.16;4934933;28;120069;-79
2022/09/12 03:36:20;;;;;;;14.82;13.18;;;;;;;14.96;68.83;101351.00;4947428;28;120683;-79
2022/09/12 03:38:46;;;;;;;14.98;13.40;;;;;;;14.89;69.15;101341.00;4925682;28;121698;-79
2022/09/12 03:41:11;;;;;;;15.77;14.27;;;;;;;14.95;68.95;101349.47;4925932;28;120414;-79
2022/09/12 03:43:37;;;;;;;15.65;13.63;;;;;;;14.96;69.51;101345.47;4909764;28;120044;-79
2022/09/12 03:46:03;;;;;;;13.32;12.00;;;;;;;14.98;69.21;101343.00;4926110;28;119588;-80
2022/09/12 03:48:30;;;;;;;15.20;13.68;;;;;;;14.98;69.65;101340.25;4907471;28;122542;-80
2022/09/12 03:51:03;;;;;;;16.65;14.52;;;;;;;14.99;69.58;101339.78;4920080;28;119838;-80
2022/09/12 03:53:30;;;;;;;17.25;15.43;;;;;;;15.01;69.54;101336.53;4926706;28;121869;-79
2022/09/12 03:55:56;;;;;;;21.27;18.80;;;;;;;15.02;69.78;101332.56;4940994;28;120804;-80
2022/09/12 03:58:29;;;;;;;27.95;24.25;;;;;;;15.05;70.13;101326.09;4930721;28;120529;-80
2022/09/12 04:00:55;;;;;;;26.48;23.65;;;;;;;15.05;70.32;101326.84;4907209;28;122995;-80
2022/09/12 04:03:21;;;;;;;27.73;23.90;;;;;;;15.03;70.68;101325.78;4906195;28;119766;-79
2022/09/12 04:05:47;;;;;;;28.60;24.88;;;;;;;15.09;70.87;101323.16;4904319;28;120399;-80
2022/09/12 04:08:13;;;;;;;30.83;26.17;;;;;;;15.13;70.78;101326.50;4910353;28;123705;-79
2022/09/12 04:10:39;;;;;;;31.27;26.83;;;;;;;15.13;71.17;101321.75;4925326;28;120290;-79
2022/09/12 04:13:05;;;;;;;38.53;31.95;;;;;;;15.20;71.18;101326.97;4908356;28;121896;-80
2022/09/12 04:15:31;;;;;;;35.22;28.15;;;;;;;15.25;71.15;101333.84;4902512;28;120616;-80
2022/09/12 04:17:56;;;;;;;31.85;27.38;;;;;;;15.27;70.83;101329.38;4927344;28;119619;-80
2022/09/12 04:20:31;;;;;;;38.42;30.55;;;;;;;15.30;71.05;101325.69;4930021;28;121296;-79
2022/09/12 04:22:57;;;;;;;41.20;31.70;;;;;;;15.33;71.27;101330.28;4909442;28;120222;-80
2022/09/12 04:25:22;;;;;;;39.08;32.00;;;;;;;15.33;71.00;101330.28;4909317;28;121923;-80
2022/09/12 04:27:48;;;;;;;41.47;33.03;;;;;;;15.39;71.57;101329.66;4925305;28;119932;-80
2022/09/12 04:30:14;;;;;;;34.63;27.40;;;;;;;15.41;71.14;101325.19;4914209;28;119623;-80
2022/09/12 04:32:40;;;;;;;39.20;32.15;;;;;;;15.41;71.09;101316.13;4940727;28;120282;-80
2022/09/12 04:35:06;;;;;;;37.08;31.17;;;;;;;15.43;70.97;101321.97;4924605;28;120128;-80
2022/09/12 04:37:34;;;;;;;34.47;29.75;;;;;;;15.46;71.01;101321.03;4907973;28;119874;-80
2022/09/12 04:40:03;;;;;;;28.05;23.65;;;;;;;15.45;70.42;101325.03;4923947;28;123382;-80
2022/09/12 04:42:28;;;;;;;25.92;20.90;;;;;;;15.48;70.25;101327.59;4928789;28;120545;-79
2022/09/12 04:44:54;;;;;;;25.67;20.73;;;;;;;15.46;69.95;101318.25;4925835;28;119910;-79
2022/09/12 04:47:20;;;;;;;32.40;23.60;;;;;;;15.40;69.91;101317.38;4906918;28;123984;-80
2022/09/12 04:49:47;;;;;;;31.63;27.65;;;;;;;15.41;70.19;101318.91;4924087;28;120114;-79
2022/09/12 04:52:16;;;;;;;31.80;26.58;;;;;;;15.40;70.18;101318.13;4925978;28;121734;-80
2022/09/12 04:54:47;;;;;;;33.95;28.10;;;;;;;15.38;70.45;101309.53;4925998;28;124645;-79
2022/09/12 04:57:14;;;;;;;33.08;25.85;;;;;;;15.42;70.19;101306.59;4924776;28;119942;-79
2022/09/12 04:59:40;;;;;;;29.00;25.25;;;;;;;15.43;70.20;101310.91;4908029;28;122038;-80
2022/09/12 05:02:05;;;;;;;;;;;;;;;15.43;69.80;101314.44;4925869;28;120546;-79
2022/09/12 05:04:31;;;;;;;41.08;32.47;;;;;;;15.47;70.66;101314.25;4930978;28;119942;-79
2022/09/12 05:07:05;;;;;;;42.72;32.67;;;;;;;15.43;70.74;101302.59;4911434;28;120350;-79
2022/09/12 05:09:31;;;;;;;42.72;33.33;;;;;;;15.47;71.23;101306.72;4926433;28;120270;-80
2022/09/12 05:11:59;;;;;;;42.72;34.15;;;;;;;15.54;70.90;101305.59;4927204;28;121128;-79
2022/09/12 05:14:25;;;;;;;47.85;35.22;;;;;;;15.52;70.80;101305.31;4909201;28;121450;-79
2022/09/12 05:16:51;;;;;;;48.90;35.95;;;;;;;15.59;71.18;101308.50;4927611;28;120603;-80
2022/09/12 05:19:16;;;;;;;52.50;37.03;;;;;;;15.58;71.10;101301.47;4909805;28;122420;-80
2022/09/12 05:21:45;;;;;;;45.42;34.80;;;;;;;15.64;71.08;101310.66;4933399;28;123408;-80
2022/09/12 05:24:11;;;;;;;45.65;34.63;;;;;;;15.69;71.21;101300.94;4930079;28;120337;-80
2022/09/12 05:26:37;;;;;;;51.42;37.00;;;;;;;15.67;71.24;101292.34;4931274;28;121883;-79
2022/09/12 05:29:04;;;;;;;49.08;36.75;;;;;;;15.78;71.66;101292.56;4926381;28;121491;-79
2022/09/12 05:31:29;;;;;;;50.72;36.65;;;;;;;15.82;71.24;101297.94;4911161;28;121118;-79
2022/09/12 05:33:56;;;;;;;55.38;37.80;;;;;;;15.85;71.22;101296.97;4922446;28;119966;-79
2022/09/12 05:36:24;;;;;;;52.60;37.05;;;;;;;15.90;71.40;101294.34;4926717;28;119832;-80
2022/09/12 05:38:50;;;;;;;53.10;38.28;;;;;;;15.97;71.40;101293.22;4927279;28;121657;-80
2022/09/12 05:41:18;;;;;;;55.08;38.53;;;;;;;16.00;71.28;101297.81;4928256;28;121009;-80
2022/09/12 05:43:45;;;;;;;53.65;36.92;;;;;;;16.07;71.41;101291.91;4928115;28;120778;-80
2022/09/12 05:46:39;;;;;;;53.42;38.58;;;;;;;16.12;71.52;101302.34;4922239;28;120153;-81
2022/09/12 05:49:10;;;;;;;54.90;37.63;;;;;;;16.19;71.41;101298.44;4927344;28;119908;-81
2022/09/12 05:51:39;;;;;;;53.67;37.15;;;;;;;16.17;71.45;101289.84;4907979;28;122231;-79
2022/09/12 05:54:09;;;;;;;59.03;39.67;;;;;;;16.28;71.42;101298.34;4907990;28;123390;-79
2022/09/12 05:56:40;;;;;;;53.97;37.55;;;;;;;16.34;71.36;101295.69;4907580;28;120347;-80
2022/09/12 05:59:27;;;;;;;53.58;36.50;;;;;;;16.41;71.72;101298.84;4914778;28;120124;-81
2022/09/12 06:02:11;;;;;;;51.05;35.05;;;;;;;16.48;71.43;101314.31;4911867;28;121047;-81
2022/09/12 06:04:39;;;;;;;51.10;36.58;;;;;;;16.61;71.39;101311.28;4909408;28;120324;-81
2022/09/12 06:07:05;;;;;;;51.38;35.63;;;;;;;16.67;71.09;101310.16;4926357;28;120437;-81
2022/09/12 06:09:49;;;;;;;;;;;;;;;16.72;70.28;101314.25;4901333;28;120471;-78
2022/09/12 06:12:15;;;;;;;;;;;;;;;16.76;69.93;101315.59;4944081;28;120761;-78
2022/09/12 06:14:40;;;;;;;;;;;;;;;16.81;69.68;101316.94;4915459;28;123931;-78
2022/09/12 06:17:05;;;;;;;;;;;;;;;16.86;69.54;101310.72;4927641;28;120817;-78
2022/09/12 06:19:31;;;;;;;;;;;;;;;16.89;69.53;101320.84;4914662;28;119995;-78
2022/09/12 06:21:57;;;;;;;;;;;;;;;16.93;69.58;101321.41;4940179;28;122130;-78
2022/09/12 06:24:22;;;;;;;;;;;;;;;16.97;69.42;101316.44;4936127;28;120103;-78
2022/09/12 06:26:49;;;;;;;;;;;;;;;17.02;69.26;101315.00;4916589;28;122643;-79
2022/09/12 06:29:14;;;;;;;;;;;;;;;17.06;69.20;101316.34;4892173;28;123342;-78
2022/09/12 06:31:41;;;;;;;;;;;;;;;17.11;69.31;101321.22;4922653;28;120262;-79
2022/09/12 06:34:12;;;;;;;;;;;;;;;17.19;69.47;101314.03;4941038;28;122852;-79
2022/09/12 06:36:39;;;;;;;;;;;;;;;17.26;69.49;101303.78;4914833;28;120939;-78
2022/09/12 06:39:15;;;;;;;;;;;;;;;17.34;69.53;101310.47;4922822;28;121887;-79
2022/09/12 06:41:41;;;;;;;;;;;;;;;17.42;69.44;101309.56;4923450;28;120429;-79
2022/09/12 06:44:06;;;;;;;;;;;;;;;17.50;69.41;101307.91;4923569;28;121685;-79
2022/09/12 06:46:32;;;;;;;;;;;;;;;17.59;69.28;101304.28;4909660;28;120936;-79
2022/09/12 06:49:03;;;;;;;;;;;;;;;17.67;69.39;101305.41;4933700;28;121165;-78
2022/09/12 06:51:29;;;;;;;;;;;;;;;17.75;69.08;101311.31;4919677;28;120757;-79
2022/09/12 06:53:55;;;;;;;40.97;29.90;;;;;;;17.79;70.48;101309.09;4922739;28;121713;-81
2022/09/12 06:56:24;;;;;;;43.03;30.52;;;;;;;17.95;71.32;101313.31;4902620;28;121921;-82
2022/09/12 06:58:55;;;;;;;44.25;31.25;;;;;;;18.06;71.27;101310.69;4935331;28;120786;-82
2022/09/12 07:01:26;;;;;;;35.60;28.33;;;;;;;18.13;71.43;101306.72;4935040;28;121202;-79
2022/09/12 07:03:54;;;;;;;37.28;28.77;;;;;;;18.28;71.05;101316.50;4920883;28;121422;-79
2022/09/12 07:06:23;;;;;;;35.75;27.35;;;;;;;18.33;71.09;101304.66;4920959;28;121766;-80
2022/09/12 07:08:49;;;;;;;39.28;27.33;;;;;;;18.49;70.97;101314.44;4905603;28;122837;-79
2022/09/12 07:11:16;;;;;;;29.38;23.00;;;;;;;18.58;70.81;101319.06;4916008;28;120674;-79
2022/09/12 07:13:44;;;;;;;25.98;21.70;;;;;;;18.66;70.58;101312.59;4935611;28;119720;-80
2022/09/12 07:16:11;;;;;;;24.92;21.77;;;;;;;18.74;70.16;101314.94;4905474;28;123041;-79
2022/09/12 07:18:38;;;;;;;24.00;20.48;;;;;;;18.76;69.66;101301.31;4904981;28;122332;-79
2022/09/12 07:21:07;;;;;;;22.60;19.40;;;;;;;18.80;69.71;101302.63;4933619;28;121653;-79
2022/09/12 07:23:33;;;;;;;21.38;17.58;;;;;;;18.87;69.64;101295.84;4921200;28;120466;-79
2022/09/12 07:26:00;;;;;;;22.42;18.13;;;;;;;18.99;69.60;101295.44;4917495;28;120395;-80
2022/09/12 07:28:30;;;;;;;21.42;16.33;;;;;;;19.11;70.14;101292.72;4913155;28;120659;-79
2022/09/12 07:30:57;;;;;;;18.23;15.27;;;;;;;19.18;69.80;101287.50;4915761;28;119918;-79
2022/09/12 07:33:26;;;;;;;18.25;15.63;;;;;;;19.31;69.51;101295.41;4900028;28;122007;-79
2022/09/12 07:35:53;;;;;;;16.38;14.65;;;;;;;19.38;69.53;101294.94;4932063;28;122950;-80
2022/09/12 07:38:22;;;;;;;14.52;12.95;;;;;;;19.50;68.78;101290.19;4905768;28;120117;-80
2022/09/12 07:40:48;;;;;;;16.30;12.88;;;;;;;19.56;68.89;101291.78;4901450;28;122991;-80
2022/09/12 07:43:14;;;;;;;13.35;10.98;;;;;;;19.59;68.55;101288.00;4916057;28;120258;-79
2022/09/12 07:45:41;;;;;;;14.20;10.23;;;;;;;19.67;67.88;101287.53;4915824;28;121963;-82
2022/09/12 07:48:09;;;;;;;10.80;9.00;;;;;;;19.73;67.69;101294.66;4932087;28;120573;-79
2022/09/12 07:51:10;;;;;;;9.50;8.60;;;;;;;19.78;67.15;101293.16;4858823;28;120216;-78
2022/09/12 07:53:42;;;;;;;9.55;8.55;;;;;;;19.84;67.48;101291.91;4858040;28;122475;-79
2022/09/12 07:56:26;;;;;;;9.43;8.40;;;;;;;19.96;67.71;101291.97;4856594;28;120409;-80
2022/09/12 07:58:53;;;;;;;11.50;8.50;;;;;;;20.06;67.42;101288.44;4860800;28;120198;-79
2022/09/12 08:01:23;;;;;;;11.10;7.43;;;;;;;20.27;66.48;101293.81;4854915;28;120489;-79
2022/09/12 08:03:53;;;;;;;8.82;7.22;;;;;;;20.42;66.28;101292.34;4854760;28;121055;-80
2022/09/12 08:06:22;;;;;;;6.88;6.05;;;;;;;20.62;65.92;101296.19;4855822;28;122575;-79
2022/09/12 08:08:49;;;;;;;7.20;5.82;;;;;;;20.81;65.49;101294.41;4859158;28;120651;-80
2022/09/12 08:11:16;;;;;;;7.37;5.70;;;;;;;21.00;65.32;101291.84;4860438;28;120521;-80
2022/09/12 08:13:43;;;;;;;6.75;6.00;;;;;;;21.17;64.01;101300.22;4859903;28;120473;-80
2022/09/12 08:16:17;;;;;;;7.23;6.53;;;;;;;21.26;62.75;101297.19;4859228;28;123834;-79
2022/09/12 08:18:43;;;;;;;7.93;6.27;;;;;;;21.37;62.71;101303.50;4859057;28;120912;-80
2022/09/12 08:21:15;;;;;;;6.90;6.20;;;;;;;21.50;61.89;101296.59;4862793;28;120960;-80
2022/09/12 08:23:43;;;;;;;7.13;5.70;;;;;;;21.59;62.22;101301.94;4844572;28;120250;-79
2022/09/12 08:26:10;;;;;;;6.10;5.40;;;;;;;21.73;62.02;101306.44;4908797;28;122242;-79
2022/09/12 08:28:44;;;;;;;6.30;5.70;;;;;;;21.80;62.54;101299.56;4927983;28;120476;-78
2022/09/12 08:31:12;;;;;;;8.00;6.65;;;;;;;21.87;61.17;101305.38;4914723;28;121192;-79
2022/09/12 08:33:38;;;;;;;8.02;6.13;;;;;;;21.85;60.63;101301.56;4918012;28;121861;-80
2022/09/12 08:36:12;;;;;;;7.18;5.95;;;;;;;21.91;61.74;101310.69;4918315;28;121599;-80
2022/09/12 08:38:41;;;;;;;6.95;6.00;;;;;;;21.87;61.74;101290.66;4923081;28;119971;-79
2022/09/12 08:41:33;;;;;;;7.22;5.47;;;;;;;21.96;61.81;101296.69;4922312;28;120349;-80
2022/09/12 08:44:21;;;;;;;7.20;6.50;;;;;;;21.99;61.58;101292.09;4926810;28;120379;-80
2022/09/12 08:47:05;;;;;;;8.50;6.25;;;;;;;22.09;62.40;101298.19;4902157;28;123866;-79
2022/09/12 08:49:51;;;;;;;6.97;6.28;;;;;;;22.21;61.75;101291.25;4876062;28;122083;-80
2022/09/12 08:52:44;;;;;;;7.45;6.70;;;;;;;22.31;61.98;101289.69;4921669;28;120928;-79
2022/09/12 08:55:33;;;;;;;8.45;6.10;;;;;;;22.43;61.23;101291.09;4899017;28;120974;-80
2022/09/12 08:58:26;;;;;;;7.00;6.25;;;;;;;22.51;60.49;101285.75;4868135;28;123020;-80
2022/09/12 09:01:04;;;;;;;7.43;6.63;;;;;;;22.52;59.64;101284.47;4930893;28;122056;-79
2022/09/12 09:04:08;;;;;;;7.10;5.80;;;;;;;22.61;60.95;101281.31;4929927;28;121807;-80
2022/09/12 09:06:58;;;;;;;9.03;7.23;;;;;;;22.68;60.66;101280.75;4898230;28;122645;-80
2022/09/12 09:09:52;;;;;;;8.45;6.90;;;;;;;22.74;59.28;101283.53;4904917;28;123261;-80
2022/09/12 09:12:38;;;;;;;6.82;6.13;;;;;;;22.76;59.82;101276.13;4901806;28;123271;-80
2022/09/12 09:15:25;;;;;;;8.32;6.88;;;;;;;22.79;60.11;101274.31;4911902;28;121986;-80
2022/09/12 09:18:30;;;;;;;8.47;7.40;;;;;;;22.80;59.02;101275.84;4914764;28;121225;-79
2022/09/12 09:21:32;;;;;;;8.47;6.87;;;;;;;22.83;59.50;101269.22;4860277;28;123188;-78
2022/09/12 09:24:06;;;;;;;9.02;7.00;;;;;;;22.84;59.64;101259.56;4840857;28;121382;-80
2022/09/12 09:26:48;;;;;;;7.78;5.78;;;;;;;22.94;58.99;101269.88;4823860;28;123486;-80
2022/09/12 09:29:26;;;;;;;8.40;7.10;;;;;;;23.02;58.77;101269.31;4852894;28;121692;-79
2022/09/12 09:31:56;;;;;;;7.18;6.47;;;;;;;23.02;58.19;101270.06;4857131;28;121696;-80
2022/09/12 09:34:25;;;;;;;7.15;6.45;;;;;;;23.05;58.22;101262.66;4830147;28;121854;-79
2022/09/12 09:37:00;;;;;;;7.57;6.40;;;;;;;23.08;57.85;101267.97;4856396;28;121880;-80
2022/09/12 09:39:59;;;;;;;8.75;5.80;;;;;;;23.12;58.45;101257.25;4842536;28;122469;-79
2022/09/12 09:42:47;;;;;;;6.85;6.10;;;;;;;23.12;58.20;101262.06;4843220;28;121609;-80
2022/09/12 09:45:19;;;;;;;8.02;6.00;;;;;;;23.08;58.65;101256.03;4840577;28;121667;-80
2022/09/12 09:47:49;;;;;;;6.93;6.20;;;;;;;23.12;58.10;101257.25;4845347;28;122599;-79
2022/09/12 09:50:16;;;;;;;6.03;5.53;;;;;;;23.10;58.33;101251.41;4843080;28;124541;-79
2022/09/12 09:52:43;;;;;;;7.00;5.80;;;;;;;23.12;57.25;101251.66;4843104;28;121572;-79
2022/09/12 09:55:16;;;;;;;6.55;5.90;;;;;;;23.11;57.89;101250.13;4847348;28;123633;-79
2022/09/12 09:57:44;;;;;;;6.43;5.63;;;;;;;23.10;57.01;101240.22;4882002;28;121370;-80
2022/09/12 10:00:26;;;;;;;6.70;6.00;;;;;;;23.08;56.14;101250.41;4935406;28;125666;-82
2022/09/12 10:03:30;;;;;;;5.87;5.23;;;;;;;23.08;56.73;101251.19;4903180;28;121809;-80
2022/09/12 10:06:04;;;;;;;6.20;5.35;;;;;;;23.11;57.91;101255.72;4903211;28;121601;-81
2022/09/12 10:08:34;;;;;;;6.07;5.50;;;;;;;23.12;57.16;101229.25;4920599;28;121671;-80
2022/09/12 10:11:14;;;;;;;7.45;5.68;;;;;;;23.13;56.76;101246.81;4902940;28;124432;-79
2022/09/12 10:13:52;;;;;;;5.47;4.53;;;;;;;23.11;56.60;101247.31;4935375;28;122033;-80
2022/09/12 10:16:21;;;;;;;4.60;4.20;;;;;;;23.07;56.28;101237.72;4918755;28;122987;-81
2022/09/12 10:18:58;;;;;;;4.50;4.10;;;;;;;23.02;57.56;101233.69;4939274;28;121999;-81
2022/09/12 10:21:30;;;;;;;4.93;4.40;;;;;;;23.08;58.02;101234.41;4918723;28;122753;-80
2022/09/12 10:24:20;;;;;;;5.97;4.35;;;;;;;23.13;57.49;101241.97;4902788;28;123464;-81
2022/09/12 10:26:55;;;;;;;4.60;4.13;;;;;;;23.08;56.48;101240.00;4934216;28;123648;-80
2022/09/12 10:29:31;;;;;;;5.30;4.30;;;;;;;23.07;56.80;101232.88;4936743;28;123486;-81
2022/09/12 10:32:03;;;;;;;5.40;4.90;;;;;;;23.08;57.91;101234.41;4930908;28;122338;-81
2022/09/12 10:34:35;;;;;;;4.88;4.45;;;;;;;23.08;57.55;101228.03;4918033;28;122809;-79
2022/09/12 10:37:07;;;;;;;5.90;4.50;;;;;;;23.17;57.51;101225.63;4901395;28;122173;-81
2022/09/12 10:39:35;;;;;;;5.20;4.70;;;;;;;23.20;57.69;101221.81;4915301;28;122480;-80
2022/09/12 10:42:02;;;;;;;6.25;5.50;;;;;;;23.27;57.09;101224.00;4922726;28;122905;-80
2022/09/12 10:44:31;;;;;;;5.28;4.78;;;;;;;23.30;58.10;101221.44;4917950;28;122769;-80
2022/09/12 10:46:57;;;;;;;4.97;4.50;;;;;;;23.37;57.68;101218.03;4901996;28;122056;-80
2022/09/12 10:49:25;;;;;;;5.88;5.22;;;;;;;23.42;57.09;101218.00;4917523;28;122858;-80
2022/09/12 10:51:53;;;;;;;6.17;5.10;;;;;;;23.50;56.76;101216.09;4917713;28;125158;-80
2022/09/12 10:54:24;;;;;;;7.93;5.57;;;;;;;23.51;54.93;101220.41;4902653;28;122954;-79
2022/09/12 10:57:12;;;;;;;5.93;5.33;;;;;;;23.50;56.57;101213.31;4917885;28;122573;-80
2022/09/12 10:59:49;;;;;;;6.30;5.70;;;;;;;23.51;56.68;101216.84;4918995;28;123120;-80
2022/09/12 11:02:33;;;;;;;5.85;4.88;;;;;;;23.56;56.82;101210.44;4901583;28;123006;-80
2022/09/12 11:05:35;;;;;;;7.20;6.22;;;;;;;23.61;55.33;101204.00;4922319;28;122390;-81
2022/09/12 11:08:11;;;;;;;7.60;6.22;;;;;;;23.60;56.04;101196.91;4883067;28;122533;-80
2022/09/12 11:11:06;;;;;;;6.57;5.90;;;;;;;23.64;56.57;101193.78;4923811;28;123377;-80
2022/09/12 11:13:56;;;;;;;6.28;5.68;;;;;;;23.66;56.96;101197.59;4903685;28;123469;-81
2022/09/12 11:16:48;;;;;;;8.32;6.18;;;;;;;23.62;54.65;101197.13;4930157;28;122650;-80
2022/09/12 11:19:36;;;;;;;8.45;6.30;;;;;;;23.60;55.58;101199.69;4883632;28;122500;-80
2022/09/12 11:22:13;;;;;;;7.57;6.63;;;;;;;23.58;55.35;101194.63;4930778;28;123555;-81
2022/09/12 11:24:54;;;;;;;7.03;6.10;;;;;;;23.58;55.66;101197.44;4905399;28;122577;-80
2022/09/12 11:27:38;;;;;;;6.77;5.93;;;;;;;23.62;55.90;101190.78;4915443;28;123430;-79
2022/09/12 11:30:10;;;;;;;7.47;6.70;;;;;;;23.56;55.36;101190.84;4896425;28;122218;-81
2022/09/12 11:32:42;;;;;;;7.70;7.00;;;;;;;23.62;56.35;101197.13;4879238;28;123639;-81
2022/09/12 11:35:16;;;;;;;7.18;6.47;;;;;;;23.71;56.21;101190.41;4877126;28;124955;-80
2022/09/12 11:38:13;;;;;;;8.02;6.63;;;;;;;23.76;55.50;101190.31;4879191;28;122471;-80
2022/09/12 11:41:10;;;;;;;7.75;6.20;;;;;;;23.83;56.02;101202.97;4898331;28;124720;-81
2022/09/12 11:43:52;;;;;;;9.57;7.70;;;;;;;23.80;54.59;101201.97;4875586;28;124047;-81